createdAt,value
2022-11-16T00:02:28.672Z,15.23
2022-11-16T00:06:05.372Z,14.63
2022-11-16T00:09:22.658Z,14.70
2022-11-16T00:13:20.054Z,14.73
2022-11-16T00:16:22.741Z,14.25
2022-11-16T00:19:47.914Z,15.20
2022-11-16T00:26:54.257Z,14.68
2022-11-16T00:30:38.161Z,14.57
2022-11-16T00:38:34.201Z,15.43
2022-11-16T00:42:15.156Z,13.80
2022-11-16T00:46:44.928Z,13.52
2022-11-16T00:50:22.603Z,13.82
2022-11-16T00:54:05.852Z,14.48
2022-11-16T01:01:56.175Z,14.18
2022-11-16T01:05:36.680Z,13.20
2022-11-16T01:09:13.063Z,13.90
2022-11-16T01:12:59.240Z,14.07
2022-11-16T01:16:51.089Z,14.07
2022-11-16T01:20:44.092Z,12.25
2022-11-16T01:24:23.528Z,13.18
2022-11-16T01:28:07.598Z,12.50
2022-11-16T01:31:43.870Z,12.88
2022-11-16T01:35:17.632Z,12.32
2022-11-16T01:39:12.442Z,14.43
2022-11-16T01:42:57.868Z,13.40
2022-11-16T01:46:43.818Z,13.98
2022-11-16T01:50:37.708Z,13.73
2022-11-16T01:54:14.855Z,12.88
2022-11-16T01:57:40.485Z,13.13
2022-11-16T02:01:16.952Z,14.02
2022-11-16T02:04:54.743Z,13.35
2022-11-16T02:13:34.787Z,14.07
2022-11-16T02:17:32.016Z,13.60
2022-11-16T02:21:11.153Z,13.63
2022-11-16T02:25:18.818Z,11.93
2022-11-16T02:29:45.459Z,14.05
2022-11-16T02:38:09.462Z,13.25
2022-11-16T02:42:00.028Z,12.25
2022-11-16T02:45:42.230Z,13.00
2022-11-16T02:54:05.108Z,13.13
2022-11-16T03:02:27.294Z,12.68
2022-11-16T03:06:41.654Z,11.77
2022-11-16T03:10:35.851Z,12.65
2022-11-16T03:14:17.398Z,12.77
2022-11-16T03:17:45.412Z,12.30
2022-11-16T03:25:44.263Z,11.70
2022-11-16T03:29:52.164Z,11.32
2022-11-16T03:45:49.545Z,11.90
2022-11-16T03:49:38.292Z,11.65
2022-11-16T03:58:11.428Z,10.45
2022-11-16T04:01:59.268Z,10.50
2022-11-16T04:06:21.840Z,11.20
2022-11-16T04:18:24.634Z,11.00
2022-11-16T04:22:40.366Z,10.65
2022-11-16T04:26:49.129Z,11.63
2022-11-16T04:30:59.706Z,10.63
2022-11-16T04:35:02.696Z,11.32
2022-11-16T04:38:47.746Z,11.70
2022-11-16T04:42:29.431Z,11.18
2022-11-16T04:46:24.463Z,11.68
2022-11-16T04:49:57.707Z,11.55
2022-11-16T04:53:42.086Z,10.57
2022-11-16T04:57:02.474Z,11.80
2022-11-16T05:00:41.417Z,11.27
2022-11-16T05:03:49.962Z,12.27
2022-11-16T05:07:22.001Z,10.15
2022-11-16T05:11:10.065Z,11.40
2022-11-16T05:15:10.387Z,12.48
2022-11-16T05:19:17.443Z,11.87
2022-11-16T05:27:32.641Z,10.60
2022-11-16T05:31:09.033Z,12.00
2022-11-16T05:34:46.960Z,12.02
2022-11-16T05:38:35.828Z,10.93
2022-11-16T05:42:17.339Z,12.63
2022-11-16T05:45:52.524Z,11.60
2022-11-16T05:49:37.774Z,11.43
2022-11-16T05:53:22.637Z,11.73
2022-11-16T05:57:08.071Z,12.18
2022-11-16T06:00:51.655Z,12.13
2022-11-16T06:04:27.860Z,11.93
2022-11-16T06:16:14.334Z,12.02
2022-11-16T06:20:01.291Z,10.90
2022-11-16T06:24:00.528Z,11.63
2022-11-16T06:27:51.146Z,12.45
2022-11-16T06:32:04.061Z,11.73
2022-11-16T06:35:41.403Z,11.65
2022-11-16T06:39:24.945Z,12.80
2022-11-16T06:43:07.838Z,10.40
2022-11-16T06:46:53.057Z,11.05
2022-11-16T06:50:32.663Z,11.70
2022-11-16T06:54:24.334Z,11.12
2022-11-16T07:01:38.662Z,11.65
2022-11-16T07:05:21.411Z,12.27
2022-11-16T07:09:25.311Z,11.73
2022-11-16T07:12:36.329Z,12.30
2022-11-16T07:16:59.341Z,13.30
2022-11-16T07:20:18.971Z,12.05
2022-11-16T07:23:25.375Z,11.75
2022-11-16T07:26:57.329Z,13.18
2022-11-16T07:30:21.240Z,12.63
2022-11-16T07:33:25.971Z,14.63
2022-11-16T07:41:06.234Z,11.93
2022-11-16T07:44:34.019Z,11.43
2022-11-16T07:48:11.408Z,12.48
2022-11-16T07:51:58.896Z,14.32
2022-11-16T07:55:08.642Z,11.93
2022-11-16T07:58:36.314Z,12.37
2022-11-16T08:01:50.231Z,13.88
2022-11-16T08:05:17.685Z,12.70
2022-11-16T08:08:28.469Z,14.13
2022-11-16T08:11:39.178Z,13.93
2022-11-16T08:15:28.659Z,14.20
2022-11-16T08:18:42.941Z,13.73
2022-11-16T08:22:26.135Z,14.23
2022-11-16T08:26:09.794Z,13.82
2022-11-16T08:34:09.532Z,12.32
2022-11-16T08:37:14.506Z,12.95
2022-11-16T08:40:29.410Z,12.55
2022-11-16T08:43:53.647Z,14.80
2022-11-16T08:47:02.019Z,14.20
2022-11-16T08:50:44.124Z,12.23
2022-11-16T08:54:20.179Z,13.40
2022-11-16T08:57:45.626Z,13.60
2022-11-16T09:01:12.727Z,15.20
2022-11-16T09:04:18.743Z,13.43
2022-11-16T09:07:22.319Z,15.98
2022-11-16T09:10:33.225Z,14.35
2022-11-16T09:13:37.499Z,13.75
2022-11-16T09:16:40.791Z,13.43
2022-11-16T09:20:06.576Z,14.15
2022-11-16T09:23:20.938Z,14.18
2022-11-16T09:26:57.674Z,14.95
2022-11-16T09:30:00.220Z,14.07
2022-11-16T09:36:36.868Z,14.30
2022-11-16T09:39:42.491Z,13.65
2022-11-16T09:42:54.028Z,14.63
2022-11-16T09:46:46.003Z,13.27
2022-11-16T09:50:03.633Z,14.48
2022-11-16T09:53:36.043Z,13.20
2022-11-16T09:56:42.319Z,14.55
2022-11-16T09:59:57.171Z,14.38
2022-11-16T10:03:20.682Z,12.73
2022-11-16T10:06:31.195Z,12.90
2022-11-16T10:09:40.708Z,13.57
2022-11-16T10:13:22.026Z,13.90
2022-11-16T10:16:41.446Z,13.57
2022-11-16T10:19:55.104Z,12.70
2022-11-16T10:23:28.982Z,13.90
2022-11-16T10:27:00.491Z,13.70
2022-11-16T10:30:10.625Z,14.95
2022-11-16T10:33:18.993Z,14.63
2022-11-16T10:36:27.538Z,23.17
2022-11-16T10:39:34.850Z,13.98
2022-11-16T10:42:58.186Z,12.23
2022-11-16T10:46:05.545Z,11.45
2022-11-16T10:49:25.245Z,13.43
2022-11-16T10:52:31.599Z,12.82
2022-11-16T10:55:34.738Z,14.50
2022-11-16T10:58:56.470Z,12.95
2022-11-16T11:02:01.418Z,15.15
2022-11-16T11:05:16.209Z,12.30
2022-11-16T11:08:33.691Z,13.13
2022-11-16T11:11:59.602Z,14.80
2022-11-16T11:15:12.645Z,14.27
2022-11-16T11:18:23.383Z,13.43
2022-11-16T11:21:27.954Z,14.35
2022-11-16T11:24:44.423Z,12.95
2022-11-16T11:28:26.854Z,11.73
2022-11-16T11:31:55.092Z,13.45
2022-11-16T11:35:03.110Z,12.88
2022-11-16T11:38:08.351Z,13.32
2022-11-16T11:41:19.443Z,11.85
2022-11-16T11:44:30.987Z,14.05
2022-11-16T11:47:58.461Z,11.70
2022-11-16T11:51:35.939Z,12.23
2022-11-16T11:55:05.962Z,12.43
2022-11-16T11:58:18.843Z,11.90
2022-11-16T12:01:48.573Z,11.73
2022-11-16T12:05:11.633Z,11.25
2022-11-16T12:08:45.987Z,13.32
2022-11-16T12:12:04.839Z,12.05
2022-11-16T12:15:36.412Z,12.80
2022-11-16T12:19:38.425Z,12.37
2022-11-16T12:23:11.309Z,11.73
2022-11-16T12:26:34.875Z,12.00
2022-11-16T12:29:37.734Z,11.45
2022-11-16T12:37:07.744Z,11.12
2022-11-16T12:41:02.183Z,12.30
2022-11-16T12:44:53.085Z,11.97
2022-11-16T12:48:15.867Z,11.48
2022-11-16T12:51:50.529Z,12.70
2022-11-16T12:55:27.097Z,12.63
2022-11-16T12:59:27.847Z,11.30
2022-11-16T13:03:11.346Z,10.82
2022-11-16T13:14:09.913Z,9.15
2022-11-16T13:15:02.167Z,10.48
2022-11-16T13:18:50.352Z,11.07
2022-11-16T13:22:28.175Z,10.98
2022-11-16T13:30:24.787Z,10.23
2022-11-16T13:34:22.972Z,11.88
2022-11-16T13:38:01.914Z,11.12
2022-11-16T13:41:36.773Z,10.15
2022-11-16T13:45:20.311Z,10.13
2022-11-16T13:49:01.996Z,10.98
2022-11-16T14:00:12.652Z,8.02
2022-11-16T14:03:35.522Z,9.83
2022-11-16T14:11:00.553Z,9.48
2022-11-16T14:26:03.015Z,21.95
2022-11-16T14:46:39.879Z,9.38
2022-11-16T14:50:40.935Z,10.80
2022-11-16T15:01:26.690Z,8.75
2022-11-16T15:04:49.728Z,8.60
2022-11-16T15:08:33.978Z,11.10
2022-11-16T15:12:23.520Z,8.80
2022-11-16T15:16:19.965Z,7.75
2022-11-16T15:19:58.853Z,9.35
2022-11-16T15:23:30.603Z,8.23
2022-11-16T15:26:49.200Z,9.05
2022-11-16T15:30:34.381Z,9.13
2022-11-16T15:34:16.630Z,9.55
2022-11-16T15:37:34.913Z,8.32
2022-11-16T15:40:55.417Z,9.67
2022-11-16T15:44:37.253Z,8.02
2022-11-16T15:48:22.504Z,8.82
2022-11-16T15:52:07.031Z,10.15
2022-11-16T15:55:46.936Z,9.10
2022-11-16T15:59:34.427Z,8.07
2022-11-16T16:03:04.572Z,6.62
2022-11-16T16:07:06.859Z,7.25
2022-11-16T16:10:42.087Z,7.87
2022-11-16T16:14:09.559Z,9.25
2022-11-16T16:17:39.172Z,7.95
2022-11-16T16:21:17.399Z,8.18
2022-11-16T16:25:37.054Z,6.93
2022-11-16T16:28:41.820Z,7.05
2022-11-16T16:32:50.359Z,7.40
2022-11-16T16:36:25.410Z,8.45
2022-11-16T16:40:00.784Z,7.35
2022-11-16T16:43:37.087Z,8.02
2022-11-16T16:47:11.625Z,6.30
2022-11-16T16:50:43.593Z,8.02
2022-11-16T16:54:16.484Z,7.40
2022-11-16T16:57:51.153Z,7.10
2022-11-16T17:01:29.006Z,6.72
2022-11-16T17:05:02.610Z,7.37
2022-11-16T17:12:11.557Z,6.43
2022-11-16T17:15:43.495Z,7.37
2022-11-16T17:19:19.318Z,7.62
2022-11-16T17:22:36.034Z,8.35
2022-11-16T17:25:42.523Z,6.72
2022-11-16T17:33:11.461Z,6.50
2022-11-16T17:36:15.369Z,6.75
2022-11-16T17:39:40.003Z,6.53
2022-11-16T17:43:15.875Z,6.90
2022-11-16T17:46:40.904Z,5.57
2022-11-16T17:53:36.821Z,6.32
2022-11-16T17:57:04.940Z,6.25
2022-11-16T18:00:50.090Z,7.05
2022-11-16T18:04:25.976Z,6.50
2022-11-16T18:07:52.927Z,7.15
2022-11-16T18:11:27.537Z,7.53
2022-11-16T18:15:21.419Z,7.20
2022-11-16T18:18:30.708Z,7.05
2022-11-16T18:22:11.637Z,6.43
2022-11-16T18:25:50.696Z,5.72
2022-11-16T18:29:22.274Z,6.85
2022-11-16T18:33:22.779Z,6.05
2022-11-16T18:37:00.119Z,5.68
2022-11-16T18:40:38.475Z,5.40
2022-11-16T18:48:26.586Z,5.90
2022-11-16T18:52:03.642Z,6.12
2022-11-16T19:07:15.805Z,8.73
2022-11-16T19:10:39.479Z,6.35
2022-11-16T19:14:17.226Z,6.65
2022-11-16T19:18:20.484Z,6.32
2022-11-16T19:21:39.411Z,6.30
2022-11-16T19:29:16.770Z,5.57
2022-11-16T19:33:05.278Z,7.35
2022-11-16T19:37:14.821Z,7.18
2022-11-16T19:40:51.373Z,6.93
2022-11-16T19:44:30.223Z,5.80
2022-11-16T19:48:10.504Z,6.37
2022-11-16T19:51:31.474Z,6.40
2022-11-16T19:55:16.235Z,5.53
2022-11-16T19:59:03.263Z,6.03
2022-11-16T20:02:29.907Z,5.32
2022-11-16T20:06:23.592Z,5.78
2022-11-16T20:10:12.714Z,5.97
2022-11-16T20:13:48.800Z,4.70
2022-11-16T20:17:22.786Z,4.10
2022-11-16T20:21:02.737Z,4.95
2022-11-16T20:24:21.078Z,5.85
2022-11-16T20:28:11.279Z,5.40
2022-11-16T20:49:53.450Z,5.20
2022-11-16T20:53:41.139Z,5.70
2022-11-16T20:57:15.914Z,5.15
2022-11-16T21:04:57.525Z,4.57
2022-11-16T21:08:28.013Z,3.83
2022-11-16T21:16:24.455Z,4.47
2022-11-16T21:20:25.861Z,5.07
2022-11-16T21:24:02.034Z,5.05
2022-11-16T21:31:25.868Z,5.40
2022-11-16T21:35:05.919Z,4.30
2022-11-16T21:38:28.016Z,5.55
2022-11-16T21:42:43.371Z,5.28
2022-11-16T21:50:35.270Z,5.50
2022-11-16T21:54:11.812Z,5.07
2022-11-16T21:58:16.367Z,4.82
2022-11-16T22:02:02.593Z,5.65
2022-11-16T22:06:03.385Z,5.20
2022-11-16T22:09:42.570Z,5.65
2022-11-16T22:17:07.489Z,5.32
2022-11-16T22:21:11.855Z,5.20
2022-11-16T22:24:53.344Z,5.03
2022-11-16T22:49:06.047Z,5.45
2022-11-16T23:06:28.912Z,5.93
2022-11-16T23:10:03.498Z,5.87
2022-11-16T23:17:39.798Z,5.07
2022-11-16T23:29:14.936Z,5.20
2022-11-16T23:32:48.287Z,5.65
2022-11-16T23:36:20.324Z,5.68
2022-11-16T23:39:58.874Z,5.43
2022-11-16T23:43:47.417Z,5.95
2022-11-16T23:47:26.561Z,5.68
2022-11-16T23:58:28.952Z,5.43
